sensor_id;sensor_type;location;lat;lon;timestamp;P1;durP1;ratioP1;P2;durP2;ratioP2
22160;SDS011;49035;48.812;11.762;2023-03-01T00:01:03;28.23;;;15.00;;
22160;SDS011;49035;48.812;11.762;2023-03-01T00:03:31;30.43;;;15.43;;
22160;SDS011;49035;48.812;11.762;2023-03-01T00:05:57;27.27;;;13.80;;
22160;SDS011;49035;48.812;11.762;2023-03-01T00:08:22;30.83;;;15.33;;
22160;SDS011;49035;48.812;11.762;2023-03-01T00:10:49;29.77;;;16.17;;
22160;SDS011;49035;48.812;11.762;2023-03-01T00:13:24;30.17;;;14.93;;
22160;SDS011;49035;48.812;11.762;2023-03-01T00:15:49;27.50;;;14.93;;
22160;SDS011;49035;48.812;11.762;2023-03-01T00:18:15;26.17;;;14.10;;
22160;SDS011;49035;48.812;11.762;2023-03-01T00:20:40;27.73;;;15.00;;
22160;SDS011;49035;48.812;11.762;2023-03-01T00:23:06;28.93;;;14.83;;
22160;SDS011;49035;48.812;11.762;2023-03-01T00:25:31;30.87;;;15.03;;
22160;SDS011;49035;48.812;11.762;2023-03-01T00:27:57;27.40;;;14.20;;
22160;SDS011;49035;48.812;11.762;2023-03-01T00:30:22;27.67;;;14.63;;
22160;SDS011;49035;48.812;11.762;2023-03-01T00:32:48;27.70;;;14.80;;
22160;SDS011;49035;48.812;11.762;2023-03-01T00:35:13;26.27;;;14.83;;
22160;SDS011;49035;48.812;11.762;2023-03-01T00:37:39;29.30;;;14.77;;
22160;SDS011;49035;48.812;11.762;2023-03-01T00:40:06;29.23;;;14.80;;
22160;SDS011;49035;48.812;11.762;2023-03-01T00:42:32;26.47;;;14.57;;
22160;SDS011;49035;48.812;11.762;2023-03-01T00:44:58;28.83;;;14.70;;
22160;SDS011;49035;48.812;11.762;2023-03-01T00:47:23;29.00;;;14.83;;
22160;SDS011;49035;48.812;11.762;2023-03-01T00:49:49;31.17;;;14.40;;
22160;SDS011;49035;48.812;11.762;2023-03-01T00:52:15;29.47;;;14.50;;
22160;SDS011;49035;48.812;11.762;2023-03-01T00:54:40;26.83;;;15.20;;
22160;SDS011;49035;48.812;11.762;2023-03-01T00:57:06;24.07;;;14.03;;
22160;SDS011;49035;48.812;11.762;2023-03-01T00:59:31;24.80;;;14.07;;
22160;SDS011;49035;48.812;11.762;2023-03-01T01:01:57;25.50;;;14.17;;
22160;SDS011;49035;48.812;11.762;2023-03-01T01:04:24;25.83;;;14.23;;
22160;SDS011;49035;48.812;11.762;2023-03-01T01:06:49;26.33;;;14.10;;
22160;SDS011;49035;48.812;11.762;2023-03-01T01:09:16;23.73;;;12.83;;
22160;SDS011;49035;48.812;11.762;2023-03-01T01:11:43;28.43;;;14.30;;
22160;SDS011;49035;48.812;11.762;2023-03-01T01:14:10;26.83;;;13.97;;
22160;SDS011;49035;48.812;11.762;2023-03-01T01:16:37;29.70;;;14.27;;
22160;SDS011;49035;48.812;11.762;2023-03-01T01:19:03;28.10;;;13.87;;
22160;SDS011;49035;48.812;11.762;2023-03-01T01:21:29;26.50;;;13.87;;
22160;SDS011;49035;48.812;11.762;2023-03-01T01:23:55;25.50;;;13.57;;
22160;SDS011;49035;48.812;11.762;2023-03-01T01:26:22;24.70;;;13.70;;
22160;SDS011;49035;48.812;11.762;2023-03-01T01:28:49;25.27;;;13.70;;
22160;SDS011;49035;48.812;11.762;2023-03-01T01:31:16;28.87;;;13.47;;
22160;SDS011;49035;48.812;11.762;2023-03-01T01:33:43;27.13;;;14.07;;
22160;SDS011;49035;48.812;11.762;2023-03-01T01:36:09;26.73;;;14.03;;
22160;SDS011;49035;48.812;11.762;2023-03-01T01:38:35;32.37;;;14.70;;
22160;SDS011;49035;48.812;11.762;2023-03-01T01:41:02;27.70;;;13.53;;
22160;SDS011;49035;48.812;11.762;2023-03-01T01:43:30;30.63;;;15.37;;
22160;SDS011;49035;48.812;11.762;2023-03-01T01:46:02;27.67;;;14.27;;
22160;SDS011;49035;48.812;11.762;2023-03-01T01:48:38;26.43;;;14.07;;
22160;SDS011;49035;48.812;11.762;2023-03-01T01:51:13;28.57;;;14.13;;
22160;SDS011;49035;48.812;11.762;2023-03-01T01:53:43;28.17;;;14.37;;
22160;SDS011;49035;48.812;11.762;2023-03-01T01:56:11;31.83;;;15.10;;
22160;SDS011;49035;48.812;11.762;2023-03-01T01:58:39;26.57;;;15.03;;
22160;SDS011;49035;48.812;11.762;2023-03-01T02:01:06;31.43;;;16.37;;
22160;SDS011;49035;48.812;11.762;2023-03-01T02:03:33;30.90;;;15.37;;
22160;SDS011;49035;48.812;11.762;2023-03-01T02:08:37;22.83;;;13.17;;
22160;SDS011;49035;48.812;11.762;2023-03-01T02:11:06;27.67;;;14.23;;
22160;SDS011;49035;48.812;11.762;2023-03-01T02:13:33;36.13;;;15.27;;
22160;SDS011;49035;48.812;11.762;2023-03-01T02:16:02;26.40;;;14.83;;
22160;SDS011;49035;48.812;11.762;2023-03-01T02:18:29;26.03;;;14.33;;
22160;SDS011;49035;48.812;11.762;2023-03-01T02:21:01;31.50;;;14.63;;
22160;SDS011;49035;48.812;11.762;2023-03-01T02:23:29;27.27;;;14.87;;
22160;SDS011;49035;48.812;11.762;2023-03-01T02:26:04;28.77;;;14.47;;
22160;SDS011;49035;48.812;11.762;2023-03-01T02:28:35;26.00;;;13.57;;
22160;SDS011;49035;48.812;11.762;2023-03-01T02:31:03;23.87;;;14.27;;
22160;SDS011;49035;48.812;11.762;2023-03-01T02:33:50;29.10;;;14.07;;
22160;SDS011;49035;48.812;11.762;2023-03-01T02:36:19;28.97;;;15.33;;
22160;SDS011;49035;48.812;11.762;2023-03-01T02:38:49;25.07;;;15.20;;
22160;SDS011;49035;48.812;11.762;2023-03-01T02:41:18;29.27;;;14.47;;
22160;SDS011;49035;48.812;11.762;2023-03-01T02:43:45;29.17;;;16.33;;
22160;SDS011;49035;48.812;11.762;2023-03-01T02:46:16;27.70;;;13.93;;
22160;SDS011;49035;48.812;11.762;2023-03-01T02:48:56;27.00;;;14.27;;
22160;SDS011;49035;48.812;11.762;2023-03-01T02:51:42;31.43;;;15.10;;
22160;SDS011;49035;48.812;11.762;2023-03-01T02:54:12;30.87;;;15.60;;
22160;SDS011;49035;48.812;11.762;2023-03-01T02:56:40;30.77;;;15.03;;
22160;SDS011;49035;48.812;11.762;2023-03-01T02:59:08;27.80;;;14.50;;
22160;SDS011;49035;48.812;11.762;2023-03-01T03:01:34;31.80;;;16.30;;
22160;SDS011;49035;48.812;11.762;2023-03-01T03:04:06;30.90;;;15.40;;
22160;SDS011;49035;48.812;11.762;2023-03-01T03:06:41;28.77;;;14.73;;
22160;SDS011;49035;48.812;11.762;2023-03-01T03:09:08;36.90;;;17.00;;
22160;SDS011;49035;48.812;11.762;2023-03-01T03:11:33;31.60;;;15.63;;
22160;SDS011;49035;48.812;11.762;2023-03-01T03:13:59;29.87;;;14.83;;
22160;SDS011;49035;48.812;11.762;2023-03-01T03:16:24;30.70;;;15.33;;
22160;SDS011;49035;48.812;11.762;2023-03-01T03:18:50;33.20;;;16.03;;
22160;SDS011;49035;48.812;11.762;2023-03-01T03:21:16;35.10;;;16.10;;
22160;SDS011;49035;48.812;11.762;2023-03-01T03:23:41;31.77;;;14.83;;
22160;SDS011;49035;48.812;11.762;2023-03-01T03:26:07;32.10;;;15.23;;
22160;SDS011;49035;48.812;11.762;2023-03-01T03:28:33;36.23;;;15.23;;
22160;SDS011;49035;48.812;11.762;2023-03-01T03:31:00;31.20;;;15.80;;
22160;SDS011;49035;48.812;11.762;2023-03-01T03:33:29;33.23;;;16.10;;
22160;SDS011;49035;48.812;11.762;2023-03-01T03:35:57;34.97;;;16.03;;
22160;SDS011;49035;48.812;11.762;2023-03-01T03:38:23;34.77;;;16.33;;
22160;SDS011;49035;48.812;11.762;2023-03-01T03:40:50;32.10;;;15.97;;
22160;SDS011;49035;48.812;11.762;2023-03-01T03:43:25;30.60;;;15.53;;
22160;SDS011;49035;48.812;11.762;2023-03-01T03:45:51;38.43;;;17.53;;
22160;SDS011;49035;48.812;11.762;2023-03-01T03:48:17;28.63;;;15.87;;
22160;SDS011;49035;48.812;11.762;2023-03-01T03:50:47;35.63;;;15.47;;
22160;SDS011;49035;48.812;11.762;2023-03-01T03:53:17;31.00;;;15.70;;
22160;SDS011;49035;48.812;11.762;2023-03-01T03:55:43;32.10;;;15.03;;
22160;SDS011;49035;48.812;11.762;2023-03-01T03:58:09;33.70;;;15.40;;
22160;SDS011;49035;48.812;11.762;2023-03-01T04:00:36;31.40;;;14.53;;
22160;SDS011;49035;48.812;11.762;2023-03-01T04:03:04;31.40;;;15.90;;
22160;SDS011;49035;48.812;11.762;2023-03-01T04:05:30;30.97;;;16.20;;
22160;SDS011;49035;48.812;11.762;2023-03-01T04:07:56;32.23;;;15.37;;
22160;SDS011;49035;48.812;11.762;2023-03-01T04:10:29;31.53;;;14.60;;
22160;SDS011;49035;48.812;11.762;2023-03-01T04:12:58;34.30;;;15.77;;
22160;SDS011;49035;48.812;11.762;2023-03-01T04:15:25;32.67;;;16.30;;
22160;SDS011;49035;48.812;11.762;2023-03-01T04:17:52;38.47;;;16.23;;
22160;SDS011;49035;48.812;11.762;2023-03-01T04:20:23;33.87;;;16.23;;
22160;SDS011;49035;48.812;11.762;2023-03-01T04:22:51;32.27;;;15.43;;
22160;SDS011;49035;48.812;11.762;2023-03-01T04:25:22;28.43;;;15.73;;
22160;SDS011;49035;48.812;11.762;2023-03-01T04:27:48;31.33;;;15.97;;
22160;SDS011;49035;48.812;11.762;2023-03-01T04:30:14;29.97;;;15.97;;
22160;SDS011;49035;48.812;11.762;2023-03-01T04:32:40;33.97;;;15.90;;
22160;SDS011;49035;48.812;11.762;2023-03-01T04:35:06;32.10;;;15.83;;
22160;SDS011;49035;48.812;11.762;2023-03-01T04:37:31;31.23;;;15.43;;
22160;SDS011;49035;48.812;11.762;2023-03-01T04:39:57;28.67;;;15.00;;
22160;SDS011;49035;48.812;11.762;2023-03-01T04:42:23;36.73;;;15.70;;
22160;SDS011;49035;48.812;11.762;2023-03-01T04:44:48;33.30;;;14.57;;
22160;SDS011;49035;48.812;11.762;2023-03-01T04:47:16;31.97;;;15.27;;
22160;SDS011;49035;48.812;11.762;2023-03-01T04:49:42;32.70;;;15.00;;
22160;SDS011;49035;48.812;11.762;2023-03-01T04:52:07;32.40;;;15.17;;
22160;SDS011;49035;48.812;11.762;2023-03-01T04:54:34;29.93;;;14.33;;
22160;SDS011;49035;48.812;11.762;2023-03-01T04:57:01;35.13;;;16.53;;
22160;SDS011;49035;48.812;11.762;2023-03-01T04:59:27;27.77;;;13.77;;
22160;SDS011;49035;48.812;11.762;2023-03-01T05:01:54;32.00;;;15.13;;
22160;SDS011;49035;48.812;11.762;2023-03-01T05:04:21;33.70;;;16.10;;
22160;SDS011;49035;48.812;11.762;2023-03-01T05:06:47;38.67;;;16.60;;
22160;SDS011;49035;48.812;11.762;2023-03-01T05:09:13;35.70;;;15.63;;
22160;SDS011;49035;48.812;11.762;2023-03-01T05:11:38;33.50;;;16.73;;
22160;SDS011;49035;48.812;11.762;2023-03-01T05:14:04;33.13;;;16.40;;
22160;SDS011;49035;48.812;11.762;2023-03-01T05:16:31;37.07;;;15.63;;
22160;SDS011;49035;48.812;11.762;2023-03-01T05:18:57;39.93;;;16.90;;
22160;SDS011;49035;48.812;11.762;2023-03-01T05:21:23;34.67;;;15.83;;
22160;SDS011;49035;48.812;11.762;2023-03-01T05:23:50;35.93;;;16.57;;
22160;SDS011;49035;48.812;11.762;2023-03-01T05:26:16;33.90;;;15.37;;
22160;SDS011;49035;48.812;11.762;2023-03-01T05:28:43;33.87;;;17.10;;
22160;SDS011;49035;48.812;11.762;2023-03-01T05:31:09;31.60;;;15.07;;
22160;SDS011;49035;48.812;11.762;2023-03-01T05:33:38;29.70;;;14.53;;
22160;SDS011;49035;48.812;11.762;2023-03-01T05:36:06;29.13;;;15.17;;
22160;SDS011;49035;48.812;11.762;2023-03-01T05:38:32;35.70;;;16.17;;
22160;SDS011;49035;48.812;11.762;2023-03-01T05:40:58;37.03;;;16.17;;
22160;SDS011;49035;48.812;11.762;2023-03-01T05:43:24;34.57;;;16.30;;
22160;SDS011;49035;48.812;11.762;2023-03-01T05:45:50;32.03;;;15.43;;
22160;SDS011;49035;48.812;11.762;2023-03-01T05:48:16;31.03;;;14.93;;
22160;SDS011;49035;48.812;11.762;2023-03-01T05:50:44;32.77;;;15.30;;
22160;SDS011;49035;48.812;11.762;2023-03-01T05:53:16;35.80;;;16.47;;
22160;SDS011;49035;48.812;11.762;2023-03-01T05:55:44;35.93;;;16.13;;
22160;SDS011;49035;48.812;11.762;2023-03-01T05:58:13;30.63;;;16.40;;
22160;SDS011;49035;48.812;11.762;2023-03-01T06:00:41;38.50;;;16.03;;
22160;SDS011;49035;48.812;11.762;2023-03-01T06:03:09;41.90;;;16.77;;
22160;SDS011;49035;48.812;11.762;2023-03-01T06:05:36;39.50;;;18.43;;
22160;SDS011;49035;48.812;11.762;2023-03-01T06:08:03;36.60;;;17.10;;
22160;SDS011;49035;48.812;11.762;2023-03-01T06:10:29;35.30;;;16.63;;
22160;SDS011;49035;48.812;11.762;2023-03-01T06:12:55;39.17;;;15.43;;
22160;SDS011;49035;48.812;11.762;2023-03-01T06:15:21;38.27;;;18.03;;
22160;SDS011;49035;48.812;11.762;2023-03-01T06:17:47;35.80;;;15.70;;
22160;SDS011;49035;48.812;11.762;2023-03-01T06:20:14;38.07;;;15.57;;
22160;SDS011;49035;48.812;11.762;2023-03-01T06:22:42;37.23;;;17.07;;
22160;SDS011;49035;48.812;11.762;2023-03-01T06:25:10;32.57;;;15.93;;
22160;SDS011;49035;48.812;11.762;2023-03-01T06:27:37;36.40;;;16.57;;
22160;SDS011;49035;48.812;11.762;2023-03-01T06:30:03;34.93;;;16.17;;
22160;SDS011;49035;48.812;11.762;2023-03-01T06:32:29;35.57;;;16.87;;
22160;SDS011;49035;48.812;11.762;2023-03-01T06:34:56;39.73;;;16.43;;
22160;SDS011;49035;48.812;11.762;2023-03-01T06:37:23;41.10;;;17.70;;
22160;SDS011;49035;48.812;11.762;2023-03-01T06:39:49;38.57;;;18.33;;
22160;SDS011;49035;48.812;11.762;2023-03-01T06:42:15;36.27;;;17.23;;
22160;SDS011;49035;48.812;11.762;2023-03-01T06:44:40;43.97;;;19.30;;
22160;SDS011;49035;48.812;11.762;2023-03-01T06:47:06;41.13;;;17.57;;
22160;SDS011;49035;48.812;11.762;2023-03-01T06:49:31;41.37;;;19.23;;
22160;SDS011;49035;48.812;11.762;2023-03-01T06:51:57;36.10;;;18.10;;
22160;SDS011;49035;48.812;11.762;2023-03-01T06:54:22;39.70;;;18.23;;
22160;SDS011;49035;48.812;11.762;2023-03-01T06:56:49;46.90;;;20.90;;
22160;SDS011;49035;48.812;11.762;2023-03-01T06:59:15;50.93;;;20.00;;
22160;SDS011;49035;48.812;11.762;2023-03-01T07:01:41;43.80;;;20.67;;
22160;SDS011;49035;48.812;11.762;2023-03-01T07:04:07;39.13;;;19.97;;
22160;SDS011;49035;48.812;11.762;2023-03-01T07:06:33;44.53;;;20.00;;
22160;SDS011;49035;48.812;11.762;2023-03-01T07:08:58;36.90;;;18.60;;
22160;SDS011;49035;48.812;11.762;2023-03-01T07:11:24;35.27;;;17.50;;
22160;SDS011;49035;48.812;11.762;2023-03-01T07:13:49;33.80;;;17.13;;
22160;SDS011;49035;48.812;11.762;2023-03-01T07:16:15;37.17;;;17.80;;
22160;SDS011;49035;48.812;11.762;2023-03-01T07:18:41;33.70;;;16.90;;
22160;SDS011;49035;48.812;11.762;2023-03-01T07:21:07;34.07;;;16.20;;
22160;SDS011;49035;48.812;11.762;2023-03-01T07:23:33;36.23;;;17.87;;
22160;SDS011;49035;48.812;11.762;2023-03-01T07:25:59;34.13;;;16.30;;
22160;SDS011;49035;48.812;11.762;2023-03-01T07:28:25;30.90;;;15.97;;
22160;SDS011;49035;48.812;11.762;2023-03-01T07:30:51;32.33;;;16.63;;
22160;SDS011;49035;48.812;11.762;2023-03-01T07:33:17;31.90;;;15.90;;
22160;SDS011;49035;48.812;11.762;2023-03-01T07:35:43;32.57;;;16.77;;
22160;SDS011;49035;48.812;11.762;2023-03-01T07:38:08;32.27;;;15.63;;
22160;SDS011;49035;48.812;11.762;2023-03-01T07:40:35;33.17;;;17.27;;
22160;SDS011;49035;48.812;11.762;2023-03-01T07:43:00;28.27;;;15.53;;
22160;SDS011;49035;48.812;11.762;2023-03-01T07:45:28;31.87;;;15.63;;
22160;SDS011;49035;48.812;11.762;2023-03-01T07:47:55;32.70;;;16.03;;
22160;SDS011;49035;48.812;11.762;2023-03-01T07:50:21;32.40;;;16.10;;
22160;SDS011;49035;48.812;11.762;2023-03-01T07:52:48;29.67;;;14.97;;
22160;SDS011;49035;48.812;11.762;2023-03-01T07:55:15;27.47;;;14.60;;
22160;SDS011;49035;48.812;11.762;2023-03-01T07:57:41;32.03;;;15.87;;
22160;SDS011;49035;48.812;11.762;2023-03-01T08:00:07;28.87;;;14.57;;
22160;SDS011;49035;48.812;11.762;2023-03-01T08:02:35;32.10;;;15.00;;
22160;SDS011;49035;48.812;11.762;2023-03-01T08:05:00;35.03;;;15.93;;
22160;SDS011;49035;48.812;11.762;2023-03-01T08:07:26;31.43;;;15.37;;
22160;SDS011;49035;48.812;11.762;2023-03-01T08:09:52;30.83;;;15.13;;
22160;SDS011;49035;48.812;11.762;2023-03-01T08:12:17;29.33;;;15.03;;
22160;SDS011;49035;48.812;11.762;2023-03-01T08:14:43;29.83;;;15.40;;
22160;SDS011;49035;48.812;11.762;2023-03-01T08:17:08;32.20;;;16.63;;
22160;SDS011;49035;48.812;11.762;2023-03-01T08:19:34;30.60;;;16.77;;
22160;SDS011;49035;48.812;11.762;2023-03-01T08:22:01;29.37;;;15.87;;
22160;SDS011;49035;48.812;11.762;2023-03-01T08:24:27;33.10;;;16.60;;
22160;SDS011;49035;48.812;11.762;2023-03-01T08:26:52;32.20;;;14.57;;
22160;SDS011;49035;48.812;11.762;2023-03-01T08:29:18;28.33;;;15.67;;
22160;SDS011;49035;48.812;11.762;2023-03-01T08:31:44;30.70;;;15.77;;
22160;SDS011;49035;48.812;11.762;2023-03-01T08:34:11;29.57;;;15.70;;
22160;SDS011;49035;48.812;11.762;2023-03-01T08:36:40;28.43;;;15.37;;
22160;SDS011;49035;48.812;11.762;2023-03-01T08:39:08;27.37;;;14.67;;
22160;SDS011;49035;48.812;11.762;2023-03-01T08:41:35;28.73;;;15.03;;
22160;SDS011;49035;48.812;11.762;2023-03-01T08:44:01;31.97;;;14.87;;
22160;SDS011;49035;48.812;11.762;2023-03-01T08:46:28;29.13;;;15.23;;
22160;SDS011;49035;48.812;11.762;2023-03-01T08:48:55;25.23;;;14.27;;
22160;SDS011;49035;48.812;11.762;2023-03-01T08:51:21;25.23;;;13.93;;
22160;SDS011;49035;48.812;11.762;2023-03-01T08:53:48;30.00;;;16.20;;
22160;SDS011;49035;48.812;11.762;2023-03-01T08:56:14;30.63;;;15.97;;
22160;SDS011;49035;48.812;11.762;2023-03-01T08:58:43;32.23;;;14.83;;
22160;SDS011;49035;48.812;11.762;2023-03-01T09:01:10;27.13;;;15.40;;
22160;SDS011;49035;48.812;11.762;2023-03-01T09:03:38;34.07;;;15.63;;
22160;SDS011;49035;48.812;11.762;2023-03-01T09:06:05;26.27;;;14.77;;
22160;SDS011;49035;48.812;11.762;2023-03-01T09:08:34;29.10;;;15.17;;
22160;SDS011;49035;48.812;11.762;2023-03-01T09:11:01;24.73;;;13.93;;
22160;SDS011;49035;48.812;11.762;2023-03-01T09:13:28;23.73;;;14.83;;
22160;SDS011;49035;48.812;11.762;2023-03-01T09:15:56;30.90;;;14.37;;
22160;SDS011;49035;48.812;11.762;2023-03-01T09:18:22;22.97;;;13.30;;
22160;SDS011;49035;48.812;11.762;2023-03-01T09:20:47;27.57;;;14.33;;
22160;SDS011;49035;48.812;11.762;2023-03-01T09:23:13;26.63;;;14.03;;
22160;SDS011;49035;48.812;11.762;2023-03-01T09:25:38;25.43;;;14.53;;
22160;SDS011;49035;48.812;11.762;2023-03-01T09:28:04;24.47;;;13.23;;
22160;SDS011;49035;48.812;11.762;2023-03-01T09:30:29;22.90;;;13.83;;
22160;SDS011;49035;48.812;11.762;2023-03-01T09:32:58;27.13;;;14.10;;
22160;SDS011;49035;48.812;11.762;2023-03-01T09:35:24;27.87;;;13.17;;
22160;SDS011;49035;48.812;11.762;2023-03-01T09:37:49;29.70;;;14.53;;
22160;SDS011;49035;48.812;11.762;2023-03-01T09:40:17;24.80;;;13.90;;
22160;SDS011;49035;48.812;11.762;2023-03-01T09:45:56;23.60;;;13.40;;
22160;SDS011;49035;48.812;11.762;2023-03-01T09:48:28;26.57;;;13.23;;
22160;SDS011;49035;48.812;11.762;2023-03-01T09:50:58;24.90;;;12.17;;
22160;SDS011;49035;48.812;11.762;2023-03-01T09:53:32;25.33;;;13.27;;
22160;SDS011;49035;48.812;11.762;2023-03-01T10:09:45;23.97;;;13.03;;
22160;SDS011;49035;48.812;11.762;2023-03-01T10:12:16;22.13;;;12.70;;
22160;SDS011;49035;48.812;11.762;2023-03-01T10:14:54;27.03;;;13.50;;
22160;SDS011;49035;48.812;11.762;2023-03-01T10:17:48;19.80;;;12.10;;
22160;SDS011;49035;48.812;11.762;2023-03-01T10:20:35;20.37;;;11.17;;
22160;SDS011;49035;48.812;11.762;2023-03-01T10:23:09;20.60;;;12.20;;
22160;SDS011;49035;48.812;11.762;2023-03-01T10:28:10;22.23;;;11.30;;
22160;SDS011;49035;48.812;11.762;2023-03-01T10:30:46;17.43;;;10.73;;
22160;SDS011;49035;48.812;11.762;2023-03-01T10:33:29;20.27;;;10.77;;
22160;SDS011;49035;48.812;11.762;2023-03-01T10:36:02;13.57;;;8.60;;
22160;SDS011;49035;48.812;11.762;2023-03-01T10:38:28;18.13;;;10.73;;
22160;SDS011;49035;48.812;11.762;2023-03-01T10:40:57;20.60;;;11.90;;
22160;SDS011;49035;48.812;11.762;2023-03-01T10:46:53;17.33;;;10.77;;
22160;SDS011;49035;48.812;11.762;2023-03-01T10:51:45;19.23;;;11.10;;
22160;SDS011;49035;48.812;11.762;2023-03-01T10:54:29;22.53;;;11.87;;
22160;SDS011;49035;48.812;11.762;2023-03-01T10:56:58;20.60;;;11.60;;
22160;SDS011;49035;48.812;11.762;2023-03-01T10:59:33;17.00;;;10.93;;
22160;SDS011;49035;48.812;11.762;2023-03-01T11:04:34;20.00;;;10.37;;
22160;SDS011;49035;48.812;11.762;2023-03-01T11:07:00;20.03;;;11.80;;
22160;SDS011;49035;48.812;11.762;2023-03-01T11:09:29;16.43;;;10.30;;
22160;SDS011;49035;48.812;11.762;2023-03-01T11:12:02;17.37;;;10.90;;
22160;SDS011;49035;48.812;11.762;2023-03-01T11:14:35;17.17;;;9.30;;
22160;SDS011;49035;48.812;11.762;2023-03-01T11:17:11;17.63;;;10.53;;
22160;SDS011;49035;48.812;11.762;2023-03-01T11:22:38;15.87;;;9.47;;
22160;SDS011;49035;48.812;11.762;2023-03-01T11:25:23;16.70;;;9.67;;
22160;SDS011;49035;48.812;11.762;2023-03-01T11:28:12;16.93;;;11.60;;
22160;SDS011;49035;48.812;11.762;2023-03-01T11:30:48;19.87;;;10.27;;
22160;SDS011;49035;48.812;11.762;2023-03-01T11:36:33;16.57;;;9.67;;
22160;SDS011;49035;48.812;11.762;2023-03-01T11:39:12;17.80;;;11.10;;
22160;SDS011;49035;48.812;11.762;2023-03-01T11:41:58;20.93;;;10.77;;
22160;SDS011;49035;48.812;11.762;2023-03-01T11:44:31;17.27;;;10.37;;
22160;SDS011;49035;48.812;11.762;2023-03-01T11:47:19;18.37;;;10.47;;
22160;SDS011;49035;48.812;11.762;2023-03-01T11:50:16;14.40;;;9.60;;
22160;SDS011;49035;48.812;11.762;2023-03-01T12:18:37;19.30;;;10.80;;
22160;SDS011;49035;48.812;11.762;2023-03-01T12:21:18;17.23;;;9.17;;
22160;SDS011;49035;48.812;11.762;2023-03-01T12:35:16;17.97;;;10.60;;
22160;SDS011;49035;48.812;11.762;2023-03-01T12:43:47;19.50;;;11.17;;
22160;SDS011;49035;48.812;11.762;2023-03-01T12:49:17;20.23;;;12.20;;
22160;SDS011;49035;48.812;11.762;2023-03-01T12:51:53;20.97;;;12.10;;
22160;SDS011;49035;48.812;11.762;2023-03-01T12:54:29;19.00;;;10.50;;
22160;SDS011;49035;48.812;11.762;2023-03-01T12:56:59;21.80;;;11.83;;
22160;SDS011;49035;48.812;11.762;2023-03-01T12:59:38;20.17;;;12.23;;
22160;SDS011;49035;48.812;11.762;2023-03-01T13:07:50;19.90;;;11.87;;
22160;SDS011;49035;48.812;11.762;2023-03-01T13:10:28;21.80;;;12.83;;
22160;SDS011;49035;48.812;11.762;2023-03-01T13:13:20;22.37;;;12.80;;
22160;SDS011;49035;48.812;11.762;2023-03-01T13:15:47;20.47;;;12.97;;
22160;SDS011;49035;48.812;11.762;2023-03-01T13:23:08;23.97;;;13.63;;
22160;SDS011;49035;48.812;11.762;2023-03-01T13:31:07;22.37;;;13.03;;
22160;SDS011;49035;48.812;11.762;2023-03-01T13:33:56;22.30;;;13.07;;
22160;SDS011;49035;48.812;11.762;2023-03-01T13:46:49;18.97;;;11.20;;
22160;SDS011;49035;48.812;11.762;2023-03-01T13:55:44;24.50;;;14.40;;
22160;SDS011;49035;48.812;11.762;2023-03-01T13:58:23;23.00;;;13.47;;
22160;SDS011;49035;48.812;11.762;2023-03-01T14:01:01;26.50;;;14.23;;
22160;SDS011;49035;48.812;11.762;2023-03-01T14:03:39;25.80;;;14.50;;
22160;SDS011;49035;48.812;11.762;2023-03-01T14:06:13;24.13;;;13.87;;
22160;SDS011;49035;48.812;11.762;2023-03-01T14:08:43;25.17;;;15.20;;
22160;SDS011;49035;48.812;11.762;2023-03-01T14:19:00;24.60;;;14.77;;
22160;SDS011;49035;48.812;11.762;2023-03-01T14:21:31;23.10;;;13.70;;
22160;SDS011;49035;48.812;11.762;2023-03-01T14:23:57;23.73;;;14.70;;
22160;SDS011;49035;48.812;11.762;2023-03-01T14:26:23;24.43;;;14.13;;
22160;SDS011;49035;48.812;11.762;2023-03-01T14:28:49;29.73;;;15.23;;
22160;SDS011;49035;48.812;11.762;2023-03-01T14:31:49;23.20;;;14.33;;
22160;SDS011;49035;48.812;11.762;2023-03-01T14:34:16;24.47;;;14.30;;
22160;SDS011;49035;48.812;11.762;2023-03-01T14:36:46;22.63;;;14.13;;
22160;SDS011;49035;48.812;11.762;2023-03-01T14:39:19;25.50;;;14.13;;
22160;SDS011;49035;48.812;11.762;2023-03-01T14:41:48;24.10;;;14.13;;
22160;SDS011;49035;48.812;11.762;2023-03-01T14:44:16;23.90;;;14.13;;
22160;SDS011;49035;48.812;11.762;2023-03-01T14:46:51;24.70;;;12.93;;
22160;SDS011;49035;48.812;11.762;2023-03-01T14:49:21;23.50;;;13.13;;
22160;SDS011;49035;48.812;11.762;2023-03-01T14:57:22;22.10;;;13.33;;
22160;SDS011;49035;48.812;11.762;2023-03-01T14:59:50;25.67;;;14.03;;
22160;SDS011;49035;48.812;11.762;2023-03-01T15:02:20;25.23;;;13.83;;
22160;SDS011;49035;48.812;11.762;2023-03-01T15:04:52;25.50;;;14.97;;
22160;SDS011;49035;48.812;11.762;2023-03-01T15:07:26;23.97;;;14.23;;
22160;SDS011;49035;48.812;11.762;2023-03-01T15:09:56;25.53;;;13.93;;
22160;SDS011;49035;48.812;11.762;2023-03-01T15:14:52;21.23;;;13.70;;
22160;SDS011;49035;48.812;11.762;2023-03-01T15:17:31;23.67;;;14.43;;
22160;SDS011;49035;48.812;11.762;2023-03-01T15:19:58;22.53;;;13.13;;
22160;SDS011;49035;48.812;11.762;2023-03-01T15:22:25;22.07;;;13.67;;
22160;SDS011;49035;48.812;11.762;2023-03-01T15:24:52;23.70;;;13.83;;
22160;SDS011;49035;48.812;11.762;2023-03-01T15:27:19;23.20;;;13.53;;
22160;SDS011;49035;48.812;11.762;2023-03-01T15:29:48;24.83;;;13.67;;
22160;SDS011;49035;48.812;11.762;2023-03-01T15:32:32;22.87;;;14.73;;
22160;SDS011;49035;48.812;11.762;2023-03-01T15:35:31;22.47;;;13.67;;
22160;SDS011;49035;48.812;11.762;2023-03-01T15:37:59;27.27;;;14.00;;
22160;SDS011;49035;48.812;11.762;2023-03-01T15:40:29;24.87;;;13.90;;
22160;SDS011;49035;48.812;11.762;2023-03-01T15:45:24;23.60;;;13.47;;
22160;SDS011;49035;48.812;11.762;2023-03-01T15:47:53;22.53;;;12.27;;
22160;SDS011;49035;48.812;11.762;2023-03-01T15:52:54;21.00;;;12.73;;
22160;SDS011;49035;48.812;11.762;2023-03-01T15:58:01;24.77;;;14.13;;
22160;SDS011;49035;48.812;11.762;2023-03-01T16:00:34;25.13;;;12.57;;
22160;SDS011;49035;48.812;11.762;2023-03-01T16:03:00;21.97;;;13.07;;
22160;SDS011;49035;48.812;11.762;2023-03-01T16:05:30;28.37;;;13.97;;
22160;SDS011;49035;48.812;11.762;2023-03-01T16:07:57;27.40;;;15.70;;
22160;SDS011;49035;48.812;11.762;2023-03-01T16:10:23;21.23;;;12.90;;
22160;SDS011;49035;48.812;11.762;2023-03-01T16:12:49;31.23;;;16.07;;
22160;SDS011;49035;48.812;11.762;2023-03-01T16:15:24;23.27;;;13.33;;
22160;SDS011;49035;48.812;11.762;2023-03-01T16:17:58;28.83;;;17.70;;
22160;SDS011;49035;48.812;11.762;2023-03-01T16:20:24;31.43;;;16.57;;
22160;SDS011;49035;48.812;11.762;2023-03-01T16:22:50;33.57;;;19.43;;
22160;SDS011;49035;48.812;11.762;2023-03-01T16:25:17;29.27;;;16.90;;
22160;SDS011;49035;48.812;11.762;2023-03-01T16:27:44;26.63;;;15.43;;
22160;SDS011;49035;48.812;11.762;2023-03-01T16:30:11;27.90;;;17.43;;
22160;SDS011;49035;48.812;11.762;2023-03-01T16:32:41;29.30;;;18.07;;
22160;SDS011;49035;48.812;11.762;2023-03-01T16:35:08;29.60;;;17.03;;
22160;SDS011;49035;48.812;11.762;2023-03-01T16:37:35;31.17;;;17.17;;